Time;durP1;ratioP1;P1;durP2;ratioP2;P2;SDS_P1;SDS_P2;PMS_P1;PMS_P2;Temp;Humidity;BMP_temperature;BMP_pressure;BME280_temperature;BME280_humidity;BME280_pressure;Samples;Min_cycle;Max_cycle;Signal;HPM_P1;HPM_P2
2022/03/31 00:00:49;;;;;;;5.45;4.78;;;;;;;8.04;56.53;99891.00;3573923;40;20086;-62
2022/03/31 00:03:17;;;;;;;5.35;4.72;;;;;;;8.03;56.45;99889.28;3584973;40;20056;-61
2022/03/31 00:05:45;;;;;;;5.70;5.10;;;;;;;8.04;55.84;99890.16;3584593;39;20062;-61
2022/03/31 00:08:18;;;;;;;6.30;5.15;;;;;;;7.99;56.18;99881.56;3576119;40;20059;-62
2022/03/31 00:10:52;;;;;;;6.38;5.13;;;;;;;7.95;56.24;99885.41;3583934;40;20100;-62
2022/03/31 00:13:22;;;;;;;7.22;4.93;;;;;;;7.86;56.22;99878.81;3585354;40;20096;-61
2022/03/31 00:15:49;;;;;;;6.35;5.30;;;;;;;7.86;56.76;99886.84;3578410;39;20048;-61
2022/03/31 00:18:16;;;;;;;5.32;4.82;;;;;;;7.81;56.47;99884.50;3586015;39;20054;-61
2022/03/31 00:24:23;;;;;;;6.43;5.20;;;;;;;7.32;57.53;99819.97;3573549;40;20060;-61
2022/03/31 00:26:48;;;;;;;6.07;5.47;;;;;;;7.74;56.84;99893.88;3586171;39;20060;-62
2022/03/31 00:29:14;;;;;;;7.25;5.40;;;;;;;7.75;56.79;99892.06;3584880;39;20121;-61
2022/03/31 00:31:40;;;;;;;5.70;5.18;;;;;;;7.78;57.30;99891.88;3578660;40;20063;-62
2022/03/31 00:34:06;;;;;;;5.90;5.30;;;;;;;7.75;57.76;99886.72;3584753;40;20056;-62
2022/03/31 00:36:31;;;;;;;6.28;5.68;;;;;;;7.74;57.18;99891.22;3583837;40;20894;-62
2022/03/31 00:41:43;;;;;;;6.72;5.60;;;;;;;7.70;57.74;99886.16;3583988;40;20055;-62
2022/03/31 00:44:09;;;;;;;6.57;5.50;;;;;;;7.71;57.74;99882.50;3586373;39;20083;-63
2022/03/31 00:46:34;;;;;;;6.35;5.72;;;;;;;7.67;58.27;99882.72;3576265;40;20884;-63
2022/03/31 00:49:01;;;;;;;6.53;5.82;;;;;;;7.61;57.60;99871.53;3584587;40;20431;-63
2022/03/31 00:51:29;;;;;;;9.05;6.15;;;;;;;7.65;58.13;99881.97;3585058;40;20523;-62
2022/03/31 00:53:56;;;;;;;6.80;5.97;;;;;;;7.59;58.33;99879.69;3585975;39;20058;-63
2022/03/31 00:56:25;;;;;;;7.47;6.45;;;;;;;7.61;58.49;99888.47;3574517;39;20078;-62
2022/03/31 00:58:53;;;;;;;7.60;6.50;;;;;;;7.60;58.78;99886.75;3586470;39;20069;-63
2022/03/31 01:01:21;;;;;;;7.63;6.43;;;;;;;7.51;58.36;99867.75;3580789;40;20054;-62
2022/03/31 01:03:47;;;;;;;8.57;7.07;;;;;;;7.55;58.41;99883.53;3581252;40;20069;-63
2022/03/31 01:06:12;;;;;;;9.38;7.47;;;;;;;7.48;58.58;99875.97;3585432;39;20359;-62
2022/03/31 01:08:38;;;;;;;8.93;7.20;;;;;;;7.48;59.23;99871.47;3581740;40;20064;-62
2022/03/31 01:11:04;;;;;;;12.82;7.25;;;;;;;7.51;59.03;99871.28;3575090;40;20057;-63
2022/03/31 01:13:30;;;;;;;10.40;7.88;;;;;;;7.56;58.66;99873.69;3584494;40;20064;-62
2022/03/31 01:15:55;;;;;;;9.05;7.53;;;;;;;7.49;58.70;99872.38;3586278;39;20091;-62
2022/03/31 01:18:21;;;;;;;11.40;7.53;;;;;;;7.44;58.74;99859.28;3576739;40;20056;-62
2022/03/31 01:20:47;;;;;;;11.45;8.02;;;;;;;7.40;58.92;99858.63;3585563;39;20627;-62
2022/03/31 01:23:14;;;;;;;10.93;8.07;;;;;;;7.43;59.15;99857.56;3584402;40;20133;-63
2022/03/31 01:25:41;;;;;;;9.77;7.93;;;;;;;7.38;59.10;99851.66;3571986;40;20066;-62
2022/03/31 01:28:07;;;;;;;11.18;8.15;;;;;;;7.44;58.56;99862.81;3585951;39;20130;-62
2022/03/31 01:30:34;;;;;;;11.18;8.65;;;;;;;7.43;59.13;99852.22;3584084;40;20068;-63
2022/03/31 01:33:00;;;;;;;12.70;8.68;;;;;;;7.46;59.21;99853.84;3578155;40;20055;-62
2022/03/31 01:35:26;;;;;;;12.57;9.15;;;;;;;7.43;59.52;99847.72;3584023;40;20074;-62
2022/03/31 01:37:52;;;;;;;12.05;9.10;;;;;;;7.45;60.07;99850.28;3584530;40;20086;-62
2022/03/31 01:40:18;;;;;;;11.65;8.85;;;;;;;7.47;60.55;99848.38;3580994;40;20109;-62
2022/03/31 01:42:45;;;;;;;10.63;8.57;;;;;;;7.43;60.80;99844.19;3579139;40;20103;-62
2022/03/31 01:45:15;;;;;;;11.80;8.82;;;;;;;7.37;60.94;99840.09;3585461;39;20047;-61
2022/03/31 01:47:42;;;;;;;10.50;8.10;;;;;;;7.35;61.01;99839.31;3575240;40;20076;-61
2022/03/31 01:50:09;;;;;;;10.07;8.38;;;;;;;7.32;61.07;99839.53;3583740;40;20056;-62
2022/03/31 01:52:36;;;;;;;11.18;7.97;;;;;;;7.32;61.03;99844.03;3584266;40;20083;-61
2022/03/31 01:55:04;;;;;;;10.70;8.68;;;;;;;7.25;61.31;99835.53;3585046;39;20051;-61
2022/03/31 01:57:30;;;;;;;13.70;9.25;;;;;;;7.15;60.98;99827.25;3573386;39;20064;-61
2022/03/31 01:59:56;;;;;;;13.23;9.10;;;;;;;7.19;61.35;99835.94;3586125;39;20371;-63
2022/03/31 02:02:22;;;;;;;11.63;8.68;;;;;;;7.13;61.80;99834.50;3582324;40;20040;-62
2022/03/31 02:04:48;;;;;;;14.70;9.32;;;;;;;7.05;62.56;99830.63;3578226;39;20095;-63
2022/03/31 02:07:14;;;;;;;12.75;9.27;;;;;;;7.00;62.75;99822.88;3582165;39;20139;-61
2022/03/31 02:09:41;;;;;;;13.40;10.10;;;;;;;6.83;63.14;99796.38;3582258;39;20052;-63
2022/03/31 02:12:08;;;;;;;18.30;10.52;;;;;;;6.93;63.40;99821.56;3573410;40;20059;-63
2022/03/31 02:14:37;;;;;;;14.25;10.30;;;;;;;6.86;63.33;99817.56;3584316;40;20058;-62
2022/03/31 02:17:06;;;;;;;13.82;10.25;;;;;;;6.76;64.04;99816.41;3582779;39;20046;-63
2022/03/31 02:19:32;;;;;;;15.95;10.85;;;;;;;6.70;64.32;99810.50;3576322;39;20075;-62
2022/03/31 02:21:58;;;;;;;14.27;11.07;;;;;;;6.62;64.78;99807.44;3584763;40;20091;-64
2022/03/31 02:24:24;;;;;;;15.25;11.48;;;;;;;6.57;64.61;99812.22;3583224;39;20052;-63
2022/03/31 02:26:51;;;;;;;16.55;11.30;;;;;;;6.50;65.45;99805.50;3583995;40;20056;-63
2022/03/31 02:29:18;;;;;;;16.98;11.75;;;;;;;6.39;65.67;99795.50;3573513;39;20377;-63
2022/03/31 02:31:48;;;;;;;16.85;11.27;;;;;;;6.45;65.77;99815.63;3585062;39;20057;-64
2022/03/31 02:34:15;;;;;;;18.08;11.75;;;;;;;6.50;65.75;99819.75;3585311;39;20106;-63
2022/03/31 02:36:42;;;;;;;16.60;11.90;;;;;;;6.31;65.69;99783.56;3576728;39;20063;-63
2022/03/31 02:39:09;;;;;;;15.50;11.50;;;;;;;6.48;65.88;99810.09;3587138;40;20079;-63
2022/03/31 02:41:37;;;;;;;16.45;11.18;;;;;;;6.48;65.98;99810.09;3585284;39;20066;-63
2022/03/31 02:44:03;;;;;;;18.65;11.18;;;;;;;6.51;66.56;99804.56;3576899;39;20358;-63
2022/03/31 02:46:29;;;;;;;13.98;10.10;;;;;;;6.51;66.05;99800.09;3586362;40;20574;-63
2022/03/31 02:48:56;;;;;;;16.42;10.55;;;;;;;6.47;65.68;99803.03;3588178;39;20067;-63
2022/03/31 02:51:23;;;;;;;13.05;9.82;;;;;;;6.46;65.86;99795.97;3579251;40;20068;-62
2022/03/31 02:56:34;;;;;;;14.13;9.98;;;;;;;6.40;66.36;99797.22;3582748;40;20066;-62
2022/03/31 02:59:00;;;;;;;12.30;9.77;;;;;;;6.42;66.48;99795.31;3577341;40;20174;-62
2022/03/31 03:01:27;;;;;;;11.88;9.40;;;;;;;6.33;67.43;99776.34;3584744;40;20075;-62
2022/03/31 03:04:00;;;;;;;12.45;9.65;;;;;;;6.42;67.62;99783.78;3587216;39;20079;-62
2022/03/31 03:06:26;;;;;;;12.15;9.00;;;;;;;6.47;68.19;99793.22;3581141;39;20432;-61
2022/03/31 03:08:54;;;;;;;10.27;8.93;;;;;;;6.43;68.33;99790.84;3582358;40;20122;-61
2022/03/31 03:11:21;;;;;;;10.80;8.90;;;;;;;6.33;68.53;99792.34;3583931;40;20314;-61
2022/03/31 03:13:47;;;;;;;11.65;9.55;;;;;;;6.19;69.66;99767.38;3586937;39;20060;-61
2022/03/31 03:16:13;;;;;;;12.30;9.88;;;;;;;6.18;69.33;99776.31;3577198;39;20068;-61
2022/03/31 03:18:40;;;;;;;14.45;10.15;;;;;;;5.95;70.17;99747.50;3582933;39;20644;-62
2022/03/31 03:21:07;;;;;;;11.88;9.57;;;;;;;6.08;70.02;99769.81;3587802;39;20052;-62
2022/03/31 03:23:39;;;;;;;12.68;9.10;;;;;;;6.11;69.89;99780.31;3578738;40;20144;-63
2022/03/31 03:26:06;;;;;;;11.00;8.40;;;;;;;6.10;70.16;99783.94;3586265;39;20059;-63
2022/03/31 03:28:37;;;;;;;10.40;8.02;;;;;;;6.04;69.71;99773.63;3584859;39;20086;-62
2022/03/31 03:31:07;;;;;;;10.77;7.97;;;;;;;5.99;69.71;99781.91;3575945;39;20048;-62
2022/03/31 03:33:34;;;;;;;9.05;7.75;;;;;;;5.90;70.05;99781.53;3577493;40;20060;-62
2022/03/31 03:36:03;;;;;;;7.85;7.05;;;;;;;5.84;69.83;99771.28;3585332;40;20302;-62
2022/03/31 03:38:31;;;;;;;8.00;6.50;;;;;;;5.77;70.41;99782.28;3578093;40;20060;-62
2022/03/31 03:40:56;;;;;;;7.57;6.28;;;;;;;5.73;70.55;99780.72;3587091;39;20493;-63
2022/03/31 03:43:22;;;;;;;6.97;6.28;;;;;;;5.72;70.01;99779.03;3583621;40;20063;-62
2022/03/31 03:45:48;;;;;;;7.50;5.55;;;;;;;5.66;69.90;99784.72;3575743;39;20059;-62
2022/03/31 03:48:14;;;;;;;7.20;5.20;;;;;;;5.63;70.00;99784.03;3583122;39;20059;-62
2022/03/31 03:50:40;;;;;;;6.13;4.80;;;;;;;5.56;70.01;99786.22;3583483;39;20052;-63
2022/03/31 03:53:08;;;;;;;3.95;3.65;;;;;;;5.48;69.79;99783.13;3593117;39;20056;-62
2022/03/31 03:55:36;;;;;;;4.03;3.63;;;;;;;5.40;69.70;99782.72;3577756;40;20103;-62
2022/03/31 03:58:03;;;;;;;3.75;3.45;;;;;;;5.31;69.77;99786.75;3587092;39;20125;-61
2022/03/31 04:00:31;;;;;;;4.25;3.28;;;;;;;5.26;69.87;99788.81;3572624;40;20071;-62
2022/03/31 04:02:57;;;;;;;4.20;3.80;;;;;;;5.14;70.05;99787.72;3584560;40;20380;-62
2022/03/31 04:05:23;;;;;;;4.00;3.70;;;;;;;5.08;70.22;99788.06;3585590;40;20095;-61
2022/03/31 04:07:49;;;;;;;4.22;3.88;;;;;;;5.05;70.69;99783.75;3584761;39;20062;-62
2022/03/31 04:10:15;;;;;;;4.18;3.88;;;;;;;5.05;70.20;99791.75;3578699;39;20055;-62
2022/03/31 04:12:41;;;;;;;4.22;3.83;;;;;;;5.05;70.90;99798.88;3584805;39;20093;-62
2022/03/31 04:15:08;;;;;;;5.40;3.90;;;;;;;4.98;71.08;99797.47;3586733;39;20059;-62
2022/03/31 04:17:34;;;;;;;4.50;4.10;;;;;;;4.91;71.34;99785.44;3575031;40;20056;-63
2022/03/31 04:20:01;;;;;;;4.43;4.03;;;;;;;4.86;71.43;99789.25;3585843;39;20129;-63
2022/03/31 04:22:27;;;;;;;4.40;4.00;;;;;;;4.84;72.43;99795.59;3585111;39;20104;-63
2022/03/31 04:24:53;;;;;;;4.40;4.00;;;;;;;4.79;72.32;99793.19;3585901;39;20048;-63
2022/03/31 04:27:19;;;;;;;3.80;3.50;;;;;;;4.71;72.79;99787.41;3574909;40;20064;-63
2022/03/31 04:29:45;;;;;;;4.68;4.25;;;;;;;4.65;73.40;99785.06;3581970;40;20063;-62
2022/03/31 04:32:12;;;;;;;5.20;3.97;;;;;;;4.57;73.54;99789.97;3573974;40;20051;-63
2022/03/31 04:34:38;;;;;;;4.15;3.85;;;;;;;4.43;73.97;99786.22;3580524;39;20091;-63
2022/03/31 04:37:06;;;;;;;4.32;3.92;;;;;;;4.46;73.81;99797.66;3584615;40;20363;-63
2022/03/31 04:39:31;;;;;;;3.80;3.40;;;;;;;4.42;74.25;99800.47;3580849;39;20691;-63
2022/03/31 04:41:57;;;;;;;3.88;3.58;;;;;;;4.45;74.93;99798.59;3576218;40;20075;-63
2022/03/31 04:44:23;;;;;;;3.03;2.83;;;;;;;4.40;74.00;99794.38;3581341;40;20060;-64
2022/03/31 04:46:48;;;;;;;3.47;3.17;;;;;;;4.33;73.79;99797.44;3570333;40;20225;-64
2022/03/31 04:49:14;;;;;;;3.35;3.05;;;;;;;4.31;74.50;99797.50;3583529;40;20128;-64
2022/03/31 04:51:40;;;;;;;3.33;3.03;;;;;;;4.25;74.91;99795.19;3572638;39;20047;-64
2022/03/31 04:54:05;;;;;;;4.18;2.70;;;;;;;4.29;74.50;99796.75;3583329;39;20190;-64
2022/03/31 04:56:32;;;;;;;3.10;2.78;;;;;;;4.26;74.39;99799.56;3574057;40;20113;-64
2022/03/31 04:58:58;;;;;;;3.42;3.13;;;;;;;4.10;74.83;99777.38;3579469;39;20091;-64
2022/03/31 05:01:25;;;;;;;2.95;2.72;;;;;;;4.06;75.21;99775.78;3579544;39;20486;-64
2022/03/31 05:03:54;;;;;;;3.25;3.05;;;;;;;4.23;75.06;99804.19;3575514;40;20055;-64
2022/03/31 05:06:20;;;;;;;4.28;3.10;;;;;;;4.21;75.00;99806.91;3581160;40;20391;-64
2022/03/31 05:08:46;;;;;;;3.08;2.88;;;;;;;4.17;74.77;99806.22;3583175;39;20067;-65
2022/03/31 05:11:11;;;;;;;2.78;2.55;;;;;;;4.17;74.58;99811.53;3582816;39;20064;-64
2022/03/31 05:13:37;;;;;;;3.58;3.28;;;;;;;4.11;75.18;99795.03;3592348;23;20338;-65
2022/03/31 05:16:03;;;;;;;3.00;2.78;;;;;;;4.11;74.98;99800.38;3577362;40;20040;-64
2022/03/31 05:18:29;;;;;;;3.33;2.95;;;;;;;4.05;74.77;99788.25;3573636;40;20225;-63
2022/03/31 05:20:54;;;;;;;3.58;3.28;;;;;;;4.02;74.03;99795.50;3586396;40;20060;-63
2022/03/31 05:23:20;;;;;;;3.50;3.20;;;;;;;3.88;74.57;99789.13;3580080;40;20060;-62
2022/03/31 05:25:46;;;;;;;3.50;3.17;;;;;;;3.97;74.62;99809.06;3574256;40;20060;-64
2022/03/31 05:28:11;;;;;;;3.30;2.97;;;;;;;3.88;75.00;99798.91;3570894;40;20383;-61
2022/03/31 05:30:38;;;;;;;3.15;2.85;;;;;;;3.75;74.88;99788.03;3563765;40;20214;-63
2022/03/31 05:33:04;;;;;;;3.35;3.03;;;;;;;3.82;74.39;99802.72;3574060;40;20060;-63
2022/03/31 05:35:30;;;;;;;2.97;2.78;;;;;;;3.82;74.22;99815.16;3568338;40;20072;-65
2022/03/31 05:37:56;;;;;;;2.67;2.47;;;;;;;3.71;74.90;99808.59;3578508;40;20084;-64
2022/03/31 05:40:22;;;;;;;2.83;2.63;;;;;;;3.73;74.52;99819.97;3575624;40;20122;-63
2022/03/31 05:42:49;;;;;;;2.92;2.72;;;;;;;3.71;74.75;99813.91;3573446;40;20366;-66
2022/03/31 05:45:15;;;;;;;3.15;2.90;;;;;;;3.66;75.13;99815.06;3562179;40;20447;-64
2022/03/31 05:47:45;;;;;;;3.03;2.70;;;;;;;3.63;75.46;99817.88;3568199;40;20093;-66
2022/03/31 05:50:13;;;;;;;2.63;2.42;;;;;;;3.07;74.46;99736.50;3564294;40;20379;-64
2022/03/31 05:52:39;;;;;;;2.50;2.30;;;;;;;3.45;75.39;99799.22;3572390;40;20060;-65
2022/03/31 05:55:11;;;;;;;4.25;3.20;;;;;;;3.45;74.99;99807.19;3565148;40;20040;-66
2022/03/31 05:57:38;;;;;;;2.83;2.63;;;;;;;3.32;75.51;99797.25;3574898;40;20064;-65
2022/03/31 06:00:09;;;;;;;2.70;2.50;;;;;;;2.89;75.75;99725.00;3565456;40;20043;-64
2022/03/31 06:02:35;;;;;;;3.10;2.90;;;;;;;3.33;75.94;99810.47;3568814;40;21359;-66
2022/03/31 06:05:01;;;;;;;3.10;2.90;;;;;;;3.28;76.34;99806.31;3570782;40;20044;-65
2022/03/31 06:07:26;;;;;;;3.28;2.97;;;;;;;3.03;76.05;99783.56;3565986;40;20048;-66
2022/03/31 06:09:52;;;;;;;3.38;3.13;;;;;;;3.07;77.17;99784.28;3574612;40;20051;-66
2022/03/31 06:12:17;;;;;;;6.90;3.33;;;;;;;3.18;76.87;99792.63;3574106;40;20143;-65
2022/03/31 06:14:44;;;;;;;4.00;3.38;;;;;;;3.18;76.91;99809.41;3573058;40;20121;-67
2022/03/31 06:17:09;;;;;;;3.25;2.95;;;;;;;3.17;76.33;99804.16;3567180;40;20434;-65
2022/03/31 06:19:35;;;;;;;3.70;3.40;;;;;;;2.74;76.98;99732.72;3574335;40;20064;-67
2022/03/31 06:22:01;;;;;;;3.65;3.28;;;;;;;3.19;77.54;99804.94;3566786;40;20489;-65
2022/03/31 06:24:26;;;;;;;3.40;3.10;;;;;;;3.10;77.02;99785.00;3569668;40;20062;-67
2022/03/31 06:26:52;;;;;;;3.17;2.90;;;;;;;3.16;76.13;99794.47;3577784;40;20056;-66
2022/03/31 06:29:18;;;;;;;3.25;2.92;;;;;;;3.17;77.33;99806.81;3574221;40;20098;-66
2022/03/31 06:31:43;;;;;;;3.28;2.97;;;;;;;3.21;76.72;99819.03;3569836;40;20060;-67
2022/03/31 06:34:09;;;;;;;3.55;3.25;;;;;;;3.19;77.67;99815.56;3574668;40;20056;-66
2022/03/31 06:36:35;;;;;;;2.90;2.70;;;;;;;3.22;76.88;99818.06;3567092;40;20075;-68
2022/03/31 06:39:02;;;;;;;3.28;3.03;;;;;;;3.25;78.21;99817.94;3577456;40;20044;-66
2022/03/31 06:41:27;;;;;;;3.47;3.17;;;;;;;3.27;78.02;99816.06;3572720;40;20108;-67
2022/03/31 06:43:53;;;;;;;3.70;3.40;;;;;;;3.31;78.10;99820.28;3580011;40;20306;-66
2022/03/31 06:46:18;;;;;;;3.35;3.05;;;;;;;3.33;77.32;99815.78;3569837;40;20055;-67
2022/03/31 06:48:47;;;;;;;3.92;3.47;;;;;;;3.25;77.85;99804.66;3580002;40;20078;-68
2022/03/31 06:51:16;;;;;;;4.43;3.40;;;;;;;3.29;77.36;99800.91;3577718;40;20060;-65
2022/03/31 06:53:44;;;;;;;4.18;3.88;;;;;;;3.35;78.03;99819.19;3569594;40;20088;-67
2022/03/31 06:56:13;;;;;;;4.30;3.92;;;;;;;3.37;78.46;99819.16;3576525;40;20053;-65
2022/03/31 06:58:40;;;;;;;3.97;3.67;;;;;;;3.39;77.31;99819.91;3578371;40;20057;-66
2022/03/31 07:01:06;;;;;;;4.57;4.20;;;;;;;3.43;76.87;99824.16;3570841;40;20145;-68
2022/03/31 07:03:32;;;;;;;4.13;3.83;;;;;;;3.44;77.06;99826.72;3578440;40;20363;-67
2022/03/31 07:05:58;;;;;;;4.03;3.65;;;;;;;3.49;77.06;99821.22;3578995;40;20162;-66
2022/03/31 07:08:24;;;;;;;4.05;3.75;;;;;;;3.54;78.45;99823.63;3568013;40;20071;-67
2022/03/31 07:10:50;;;;;;;4.38;3.88;;;;;;;3.50;77.40;99809.63;3581509;40;20048;-66
2022/03/31 07:13:16;;;;;;;4.05;3.75;;;;;;;3.53;77.28;99803.31;3576882;40;20511;-67
2022/03/31 07:15:42;;;;;;;4.50;4.15;;;;;;;3.62;76.83;99819.66;3581509;40;20053;-66
2022/03/31 07:18:08;;;;;;;4.20;3.90;;;;;;;3.57;77.41;99807.53;3570818;40;20383;-66
2022/03/31 07:20:36;;;;;;;5.00;4.60;;;;;;;3.51;77.21;99794.56;3582390;40;20141;-65
2022/03/31 07:23:03;;;;;;;4.88;4.40;;;;;;;3.60;77.84;99800.28;3571405;40;20061;-65
2022/03/31 07:25:29;;;;;;;4.25;3.85;;;;;;;3.70;77.48;99812.16;3576641;40;20060;-66
2022/03/31 07:27:56;;;;;;;4.18;3.78;;;;;;;2.98;76.87;99706.81;3578450;40;20406;-64
2022/03/31 07:30:23;;;;;;;4.60;4.20;;;;;;;3.72;77.76;99814.75;3578871;40;20119;-64
2022/03/31 07:32:59;;;;;;;4.85;4.45;;;;;;;3.70;77.64;99811.28;3567600;40;20055;-64
2022/03/31 07:35:31;;;;;;;4.90;4.40;;;;;;;3.64;76.63;99814.25;3576744;40;20608;-64
2022/03/31 07:37:59;;;;;;;4.93;4.53;;;;;;;3.54;77.57;99789.94;3578966;40;20056;-64
2022/03/31 07:40:27;;;;;;;4.82;4.43;;;;;;;3.70;77.02;99817.47;3563469;40;20149;-64
2022/03/31 07:42:54;;;;;;;4.88;4.47;;;;;;;3.76;77.80;99826.94;3576976;40;20383;-64
2022/03/31 07:45:21;;;;;;;8.00;4.43;;;;;;;3.78;78.42;99824.22;3578357;40;20054;-65
2022/03/31 07:47:47;;;;;;;5.10;4.70;;;;;;;3.83;78.18;99825.69;3569176;40;20405;-65
2022/03/31 07:50:17;;;;;;;4.63;4.22;;;;;;;3.90;77.51;99819.16;3575096;40;20074;-63
2022/03/31 07:52:44;;;;;;;4.97;4.47;;;;;;;3.90;77.86;99819.16;3577412;40;20294;-65
2022/03/31 07:55:13;;;;;;;5.15;4.70;;;;;;;3.93;78.01;99818.09;3563318;40;20329;-64
2022/03/31 07:57:39;;;;;;;5.40;4.93;;;;;;;3.84;77.74;99814.13;3578732;40;20062;-65
2022/03/31 08:00:12;;;;;;;4.63;4.18;;;;;;;3.90;77.64;99816.50;3577492;40;20056;-63
2022/03/31 08:02:44;;;;;;;4.38;3.97;;;;;;;3.92;77.38;99816.41;3572434;40;20052;-64
2022/03/31 08:05:18;;;;;;;4.35;3.97;;;;;;;3.93;77.00;99819.00;3576606;40;20049;-64
2022/03/31 08:07:43;;;;;;;4.63;4.22;;;;;;;3.95;78.13;99810.94;3576097;40;20130;-64
2022/03/31 08:10:09;;;;;;;4.18;3.78;;;;;;;4.01;77.91;99809.75;3563806;40;20065;-63
2022/03/31 08:12:36;;;;;;;4.68;4.30;;;;;;;3.86;77.40;99790.97;3577903;40;20056;-64
2022/03/31 08:15:04;;;;;;;4.25;3.85;;;;;;;4.05;77.23;99816.63;3569797;40;20053;-63
2022/03/31 08:17:30;;;;;;;4.40;4.03;;;;;;;4.05;76.82;99816.63;3569747;40;20685;-64
2022/03/31 08:19:57;;;;;;;4.28;3.92;;;;;;;3.97;76.78;99792.25;3578197;40;20127;-63
2022/03/31 08:22:23;;;;;;;4.25;3.85;;;;;;;4.04;77.38;99810.47;3578921;40;20626;-64
2022/03/31 08:24:50;;;;;;;3.53;3.33;;;;;;;4.02;77.32;99801.69;3575065;40;20057;-64
2022/03/31 08:27:16;;;;;;;3.60;3.30;;;;;;;4.07;78.04;99806.78;3565501;40;20060;-64
2022/03/31 08:29:41;;;;;;;3.63;3.33;;;;;;;4.06;77.24;99794.41;3579642;40;20058;-64
2022/03/31 08:32:08;;;;;;;3.97;3.58;;;;;;;4.11;77.50;99806.53;3564737;40;20287;-63
2022/03/31 08:34:34;;;;;;;4.28;3.70;;;;;;;4.16;77.32;99804.50;3578461;40;20418;-64
2022/03/31 08:37:00;;;;;;;3.92;3.63;;;;;;;4.15;78.56;99804.56;3577499;40;20154;-64
2022/03/31 08:39:25;;;;;;;4.65;3.75;;;;;;;4.22;77.92;99807.78;3577346;40;21325;-63
2022/03/31 08:41:52;;;;;;;3.78;3.50;;;;;;;4.12;78.20;99786.13;3565246;40;20064;-64
2022/03/31 08:44:21;;;;;;;4.43;4.03;;;;;;;4.31;79.00;99812.63;3575864;40;20060;-63
2022/03/31 08:46:49;;;;;;;4.28;3.70;;;;;;;4.36;78.30;99805.25;3575624;40;20374;-64
2022/03/31 08:49:16;;;;;;;4.25;3.88;;;;;;;4.43;77.93;99804.84;3565164;40;20096;-64
2022/03/31 08:51:46;;;;;;;4.03;3.63;;;;;;;4.39;77.49;99813.94;3573711;40;20064;-64
2022/03/31 08:54:12;;;;;;;4.90;4.40;;;;;;;4.26;77.52;99785.41;3573679;40;20719;-63
2022/03/31 08:56:39;;;;;;;4.90;4.50;;;;;;;4.49;77.53;99816.13;3570204;40;20056;-64
2022/03/31 08:59:07;;;;;;;5.20;4.53;;;;;;;4.51;76.77;99809.78;3565965;40;20306;-63
2022/03/31 09:01:34;;;;;;;4.70;4.30;;;;;;;4.53;76.27;99812.34;3565177;40;20228;-64
2022/03/31 09:04:00;;;;;;;4.70;4.32;;;;;;;4.55;76.05;99815.78;3569441;40;20059;-64
2022/03/31 09:06:28;;;;;;;4.57;4.18;;;;;;;4.60;76.34;99819.09;3569852;40;20072;-64
2022/03/31 09:08:57;;;;;;;3.90;3.60;;;;;;;4.68;76.00;99819.50;3574184;40;20044;-64
2022/03/31 09:11:32;;;;;;;4.10;3.70;;;;;;;4.73;76.15;99819.28;3564979;40;20327;-63
2022/03/31 09:14:02;;;;;;;4.65;3.90;;;;;;;4.76;76.22;99813.78;3581129;40;20050;-65
2022/03/31 09:16:38;;;;;;;4.32;3.90;;;;;;;4.77;76.47;99815.50;3569697;40;20057;-63
2022/03/31 09:19:13;;;;;;;4.28;3.88;;;;;;;4.82;76.09;99818.75;3574157;40;20048;-63
2022/03/31 09:21:58;;;;;;;4.05;3.75;;;;;;;4.83;75.69;99821.34;3576156;40;20074;-63
2022/03/31 09:24:27;;;;;;;3.97;3.58;;;;;;;4.91;75.95;99822.72;3577901;40;20052;-64
2022/03/31 09:26:56;;;;;;;4.28;3.88;;;;;;;4.95;75.83;99816.28;3578567;40;20346;-65
2022/03/31 09:29:25;;;;;;;3.90;3.60;;;;;;;5.01;75.88;99818.63;3565539;40;21135;-63
2022/03/31 09:31:52;;;;;;;4.72;4.13;;;;;;;5.04;74.77;99829.09;3570379;40;20314;-64
2022/03/31 09:34:19;;;;;;;4.40;4.00;;;;;;;4.84;75.05;99804.44;3566860;40;20056;-63
2022/03/31 09:36:53;;;;;;;4.53;4.00;;;;;;;4.94;75.47;99822.56;3570621;40;20086;-64
2022/03/31 09:39:21;;;;;;;;;;;;;;;4.95;76.31;99829.59;3577871;40;20052;-64
2022/03/31 09:41:51;;;;;;;4.40;3.72;;;;;;;5.01;76.36;99823.94;3578697;40;19943;-64
2022/03/31 09:44:23;;;;;;;6.22;3.47;;;;;;;5.04;76.04;99823.78;3568254;40;20052;-64
2022/03/31 09:46:51;;;;;;;4.55;3.90;;;;;;;5.03;74.78;99822.91;3579084;40;20369;-64
2022/03/31 09:49:18;;;;;;;4.53;4.03;;;;;;;5.09;74.64;99819.06;3568262;40;20057;-64
2022/03/31 09:51:52;;;;;;;5.00;3.80;;;;;;;5.12;74.82;99824.22;3572565;40;20056;-64
2022/03/31 09:54:26;;;;;;;4.00;3.65;;;;;;;5.13;74.04;99828.59;3576485;40;20064;-64
2022/03/31 09:56:54;;;;;;;4.45;3.80;;;;;;;5.09;74.26;99821.72;3577772;40;20080;-65
2022/03/31 09:59:20;;;;;;;4.68;4.18;;;;;;;5.13;74.12;99829.44;3564041;40;20049;-64
2022/03/31 10:01:46;;;;;;;4.75;4.13;;;;;;;5.13;74.44;99826.78;3573020;40;20329;-66
2022/03/31 10:04:14;;;;;;;6.47;4.07;;;;;;;5.16;73.85;99823.09;3568845;40;20052;-65
2022/03/31 10:06:43;;;;;;;5.25;4.10;;;;;;;5.19;74.56;99822.06;3573227;40;20103;-65
2022/03/31 10:09:12;;;;;;;3.83;3.53;;;;;;;5.16;74.03;99809.78;3568346;40;20053;-64
2022/03/31 10:11:48;;;;;;;5.93;3.72;;;;;;;5.01;73.30;99781.31;3574607;40;20118;-64
2022/03/31 10:14:56;;;;;;;5.32;3.88;;;;;;;5.19;74.16;99814.09;3575715;40;20056;-64
2022/03/31 10:17:28;;;;;;;5.40;3.67;;;;;;;5.19;74.88;99812.28;3554456;40;20048;-64
2022/03/31 10:20:12;;;;;;;4.35;3.95;;;;;;;5.24;74.29;99812.88;3568788;40;20118;-64
2022/03/31 10:25:37;;;;;;;4.05;3.58;;;;;;;5.38;74.06;99824.56;3567660;40;20067;-64
2022/03/31 10:28:14;;;;;;;5.30;3.88;;;;;;;5.38;73.69;99811.25;3575512;40;20047;-63
2022/03/31 10:31:04;;;;;;;4.20;3.90;;;;;;;5.49;73.96;99819.50;3575416;40;20064;-64
2022/03/31 10:33:43;;;;;;;4.43;3.63;;;;;;;5.52;73.00;99822.84;3565328;40;20056;-64
2022/03/31 10:36:12;;;;;;;3.90;3.60;;;;;;;5.60;73.25;99819.72;3567606;40;20056;-64
2022/03/31 10:39:02;;;;;;;4.30;3.58;;;;;;;5.53;72.59;99810.38;3567146;40;20075;-63
2022/03/31 10:41:38;;;;;;;4.57;3.72;;;;;;;5.62;72.81;99815.19;3572678;40;20065;-64
2022/03/31 10:44:12;;;;;;;4.03;3.63;;;;;;;5.44;72.96;99786.91;3565372;40;20064;-64
2022/03/31 10:46:46;;;;;;;4.93;3.80;;;;;;;5.62;72.80;99811.66;3564712;40;20283;-64
2022/03/31 10:49:19;;;;;;;4.05;3.60;;;;;;;5.70;73.21;99814.72;3573326;40;20063;-64
2022/03/31 10:51:46;;;;;;;4.40;4.03;;;;;;;5.76;73.69;99812.56;3568923;40;20683;-64
2022/03/31 10:54:27;;;;;;;3.50;3.20;;;;;;;5.80;73.10;99803.44;3573684;40;20052;-65
2022/03/31 10:57:15;;;;;;;3.22;3.03;;;;;;;5.84;72.62;99805.94;3574779;40;20397;-65
2022/03/31 10:59:47;;;;;;;3.92;3.53;;;;;;;5.79;72.20;99796.38;3576361;40;20056;-64
2022/03/31 11:02:19;;;;;;;3.78;3.47;;;;;;;5.23;72.24;99703.72;3564393;40;20383;-65
2022/03/31 11:04:52;;;;;;;4.10;3.70;;;;;;;5.87;71.85;99809.28;3578196;40;20149;-64
2022/03/31 11:07:22;;;;;;;4.05;3.65;;;;;;;5.86;72.30;99798.69;3570653;40;20056;-64
2022/03/31 11:10:05;;;;;;;3.72;3.42;;;;;;;5.81;71.43;99798.97;3577939;40;20067;-64
2022/03/31 11:12:32;;;;;;;4.28;3.88;;;;;;;5.84;72.42;99803.28;3572095;40;20041;-64
2022/03/31 11:15:02;;;;;;;3.92;3.55;;;;;;;5.84;72.41;99808.59;3603676;23;20055;-63
2022/03/31 11:17:30;;;;;;;4.30;3.90;;;;;;;5.83;71.60;99805.06;3573133;39;20082;-63
2022/03/31 11:19:58;;;;;;;4.50;3.80;;;;;;;5.84;71.81;99803.28;3588342;39;20059;-62
2022/03/31 11:22:27;;;;;;;4.30;3.83;;;;;;;5.92;72.59;99796.50;3575442;39;20044;-63
2022/03/31 11:25:13;;;;;;;4.18;3.78;;;;;;;5.95;73.28;99784.84;3575629;40;20303;-63
2022/03/31 11:27:42;;;;;;;5.25;3.70;;;;;;;6.10;72.34;99786.59;3566101;40;20079;-63
2022/03/31 11:30:16;;;;;;;3.80;3.50;;;;;;;6.13;72.12;99778.41;3574681;40;20064;-62
2022/03/31 11:32:44;;;;;;;3.90;3.60;;;;;;;6.30;73.46;99776.53;3567893;40;20056;-63
2022/03/31 11:35:14;;;;;;;4.97;3.55;;;;;;;6.40;73.17;99775.84;3562569;40;20048;-62
2022/03/31 11:37:51;;;;;;;4.43;3.85;;;;;;;6.47;72.81;99776.34;3565092;40;20053;-63
2022/03/31 11:40:36;;;;;;;4.13;3.72;;;;;;;6.54;72.45;99777.69;3572953;40;20082;-62
2022/03/31 11:43:06;;;;;;;4.55;4.03;;;;;;;6.47;72.91;99749.63;3569495;40;20309;-63
2022/03/31 11:45:38;;;;;;;3.72;3.42;;;;;;;6.62;71.91;99772.72;3571816;40;20478;-63
2022/03/31 11:48:11;;;;;;;4.25;3.90;;;;;;;6.61;71.90;99773.69;3573475;40;20060;-62
2022/03/31 11:50:50;;;;;;;4.10;3.70;;;;;;;6.63;71.54;99766.44;3561586;40;20068;-63
2022/03/31 11:53:26;;;;;;;4.15;3.85;;;;;;;6.54;71.01;99766.16;3566274;40;20048;-62
2022/03/31 11:56:03;;;;;;;3.80;3.50;;;;;;;6.50;71.16;99774.34;3573856;40;20055;-63